2025 Coaldale 5K Family Fun Run                 Category Results  
5K Run - 3.1 Miles            546       Finishers           
5K06&UF -  22 Competitors                                   
Cat/Pl    Name                          Bib #   Time            Pace/K    Pace/M    Offset      OA/Pl       Gen/Pl      City            
1/22      RITCHIE, BRIAR                1566    0:32:41.105     06:32     10:30     +00:00:00   195/546     78/289      COALDALE        
2/22      HIEMSTRA, ABIGAIL             1157    0:41:22.857     08:16     13:18     +00:08:41   327/546     150/289     COALDALE        
3/22      HIEMSTRA, CLAIRE              1158    0:41:26.610     08:17     13:19     +00:08:45   328/546     151/289     COALDALE        
4/22      TAMS, WINDSOR                 1314    0:41:36.488     08:19     13:22     +00:08:55   333/546     155/289     TABER           
5/22      HOUWELING, MADISON            1572    0:41:38.855     08:19     13:23     +00:08:57   336/546     158/289     COALDALE        
6/22      ABREY-MCKEOWN, MIA            1004    0:43:19.081     08:39     13:55     +00:10:37   348/546     164/289     COALDALE        
7/22      VAN DER KOOIJ, ADALYN         1324    0:44:16.607     08:51     14:14     +00:11:35   357/546     169/289     NOBLEFORD       
8/22      VANDER HEIDE, KENNEDY         1537    0:47:26.624     09:29     15:15     +00:14:45   383/546     183/289     COALDALE        
9/22      PEDERSEN, KENDYL              1402    0:51:06.882     10:13     16:26     +00:18:25   420/546     203/289     COALDALE        
10/22     WALL, AMAYA                   1414    0:51:37.173     10:19     16:35     +00:18:56   431/546     211/289     COALDALE        
11/22     DOYLE, ROSE                   1094    0:53:03.554     10:36     17:03     +00:20:22   443/546     220/289     LETHBRIDGE      
12/22     BECKER, GRACIE                1560    0:53:14.201     10:38     17:07     +00:20:33   446/546     223/289     COALDALE        
13/22     ROBINSON, PENELOPE            1284    0:53:31.878     10:42     17:12     +00:20:50   454/546     230/289     COALDALE        
14/22     BOOKER, EVE                   1511    0:55:45.541     11:09     17:55     +00:23:04   470/546     240/289     COALDALE        
15/22     BOOKER, SIERRA                1513    0:55:50.172     11:10     17:57     +00:23:09   472/546     241/289     COALDALE        
16/22     CLARK, GEORGIA                1462    0:56:06.193     11:13     18:02     +00:23:25   473/546     242/289     COALDALE        
17/22     SARRASIN, ASPEN               1290    0:56:11.427     11:14     18:04     +00:23:30   475/546     244/289     LETHBRIDGE      
18/22     NEUFELDT, ADDIE               1445    0:56:22.466     11:16     18:07     +00:23:41   479/546     246/289     COALDALE        
19/22     STAEHR, CHARLOTTE             1308    0:58:37.192     11:43     18:50     +00:25:56   487/546     251/289     EDMONTON        
20/22     TROCKSTAD, CLAIRE             1497    1:01:18.317     12:15     19:42     +00:28:37   517/546     273/289     COALDALE        
21/22     UNSER, AUBREE                 1499    1:03:41.214     12:44     20:28     +00:31:00   534/546     286/289     COALDALE        
22/22     HAWKINS, CIANA                1143    1:08:51.399     13:46     22:08     +00:36:10   545/546     289/289     COALDALE        
5K06&UM -  14 Competitors                                   
Cat/Pl    Name                          Bib #   Time            Pace/K    Pace/M    Offset      OA/Pl       Gen/Pl      City            
1/14      VERINK, COLE                  1575    0:31:16.434     06:15     10:03     +00:00:00   166/546     105/257     COALDALE        
2/14      VELDMAN, TANNER               1509    0:33:18.155     06:39     10:42     +00:02:01   202/546     120/257     LETHBRIDGE COUNT
3/14      HOUWELING, JUDE               1570    0:33:47.255     06:45     10:51     +00:02:30   208/546     121/257     COALDALE        
4/14      VAN OENE, GRAHAM              1590    0:36:15.383     07:15     11:39     +00:04:58   256/546     145/257     COALDALE        
5/14      THEROUX, JAX                  1316    0:38:08.950     07:37     12:15     +00:06:52   287/546     158/257     COALDALE        
6/14      CLARK, COOPER                 1461    0:38:34.259     07:42     12:24     +00:07:17   295/546     164/257     COALDALE        
7/14      LOHUES, ARO                   1209    0:42:04.536     08:24     13:31     +00:10:48   342/546     181/257     COALDALE        
8/14      LOHUES, OSKAR                 1213    0:42:04.589     08:24     13:31     +00:10:48   343/546     182/257     COALDALE        
9/14      VAN DER KOOIJ, PIERCE         1325    0:44:14.853     08:50     14:13     +00:12:58   355/546     188/257     NOBLEFORD       
10/14     DECICCO, MATTEO               1090    0:45:59.844     09:11     14:47     +00:14:43   367/546     194/257     COALDALE        
11/14     CORKUM, ANDREW                1067    0:46:38.244     09:19     14:59     +00:15:21   373/546     196/257     COALDALE        
12/14     HOLZLI, ELI                   1469    0:51:03.781     10:12     16:25     +00:19:47   419/546     217/257     COALDALE        
13/14     BECKER, NOLAN                 1561    0:54:07.255     10:49     17:24     +00:22:50   456/546     226/257     COALDALE        
14/14     HELLWIG, DECKER               1152    1:07:39.609     13:31     21:45     +00:36:23   542/546     255/257     LETHBRIDGE COUNT
5K07-10F -  43 Competitors                                  
Cat/Pl    Name                          Bib #   Time            Pace/K    Pace/M    Offset      OA/Pl       Gen/Pl      City            
1/43      HILGERSOM, MILLIE             1163    0:28:24.673     05:40     09:08     +00:00:00   104/546     27/289      LETHBRIDGE      
2/43      SPENCER, JESSICA              1408    0:29:38.044     05:55     09:31     +00:01:13   134/546     43/289      LETHBRIDGE      
3/43      COQUET, GRACE                 1065    0:29:58.996     05:59     09:38     +00:01:34   142/546     49/289      COALDALE        
4/43      CAPPER, ELIZABETH             1040    0:30:29.638     06:05     09:48     +00:02:04   148/546     53/289      COALDALE        
5/43      HOUWELING, ADELYNN            1567    0:30:56.907     06:11     09:57     +00:02:32   160/546     59/289      COALDALE        
6/43      HUNSPERGER, KANSAS            1547    0:31:22.961     06:16     10:05     +00:02:58   173/546     64/289      MAGRATH         
7/43      RITCHIE, HARPER               1565    0:31:23.139     06:16     10:05     +00:02:58   174/546     65/289      COALDALE        
8/43      CREEK, LYNDEN                 1077    0:31:30.316     06:18     10:07     +00:03:05   177/546     66/289      COALDALE        
9/43      HILGERSOM, SLOAN              1164    0:32:23.590     06:28     10:24     +00:03:58   189/546     74/289      LETHBRIDGE      
10/43     BRINK, LARA                   1029    0:32:31.943     06:30     10:27     +00:04:07   192/546     77/289      LETHBRIDGE      
11/43     VELDMAN, SCARLETT             1508    0:33:35.523     06:43     10:48     +00:05:10   205/546     85/289      LETHBRIDGE COUNT
12/43     VAN DER MOLEN, FAITH          1503    0:34:51.055     06:58     11:12     +00:06:26   229/546     102/289     COALDALE        
13/43     OBERKIRSCH, RYLEE             1245    0:35:33.128     07:06     11:25     +00:07:08   242/546     105/289     COALDALE        
14/43     KEAN, LILIA                   1398    0:35:33.825     07:06     11:26     +00:07:09   243/546     106/289     COALDALE        
15/43     VAN OENE, ADELLE              1588    0:36:14.197     07:14     11:39     +00:07:49   254/546     110/289     LETHBRIDGE      
16/43     HOUWELING, CADENCE            1568    0:36:46.819     07:21     11:49     +00:08:22   262/546     114/289     COALDALE        
17/43     VELDMAN, HANNAH               1586    0:37:30.597     07:30     12:03     +00:09:05   271/546     120/289     LETHBRIDGE COUNT
18/43     BULTENA, MACKENZIE            1457    0:37:36.015     07:31     12:05     +00:09:11   274/546     122/289     COALDALE        
19/43     BIJLSMA, ABIGAIL              1535    0:37:56.892     07:35     12:12     +00:09:32   282/546     126/289     PURPLE SPRINGS  
20/43     HARKER, ABIGAIL               1133    0:39:36.079     07:55     12:44     +00:11:11   301/546     135/289     COALDALE        
21/43     PENNER, CLAIRE                1479    0:39:56.926     07:59     12:50     +00:11:32   310/546     140/289     COALDALE        
22/43     HARKER, ISABELLE              1134    0:39:58.590     07:59     12:51     +00:11:33   313/546     141/289     COALDALE        
23/43     GRANBERG, ISLA                1127    0:41:39.387     08:19     13:23     +00:13:14   337/546     159/289     COALDALE        
24/43     SARRASIN, SYDNEY              1292    0:45:59.062     09:11     14:47     +00:17:34   366/546     173/289     LETHBRIDGE      
25/43     ALDERSON, PAIGE               1008    0:46:32.308     09:18     14:57     +00:18:07   372/546     177/289     COALDALE        
26/43     CORKUM, MAGDALENE             1074    0:46:38.464     09:19     14:59     +00:18:13   374/546     178/289     COALDALE        
27/43     PETEK, BRYNLEE                1256    0:47:08.568     09:25     15:09     +00:18:43   379/546     180/289     TABER           
28/43     WHITE, ISABELLE               1419    0:48:07.625     09:37     15:28     +00:19:42   390/546     188/289     COALDALE        
29/43     NELSON, SARAH                 1478    0:49:28.922     09:53     15:54     +00:21:04   402/546     192/289     COALDALE        
30/43     HAWKINS, SKY                  1146    0:49:34.345     09:54     15:56     +00:21:09   406/546     194/289     COALDALE        
31/43     KUSTERMANS, EVA               1186    0:49:35.132     09:55     15:56     +00:21:10   407/546     195/289     COALDALE        
32/43     HAWKINS, RORY                 1145    0:49:39.730     09:55     15:58     +00:21:15   409/546     197/289     COALDALE        
33/43     HELLWIG, SADIE                1153    0:50:57.684     10:11     16:23     +00:22:33   416/546     201/289     LETHBRIDGE COUNT
34/43     ODENBACH, MADISON             1386    0:51:09.034     10:13     16:26     +00:22:44   421/546     204/289     COALDALE        
35/43     HOLZLI, LAYLA                 1470    0:51:09.800     10:13     16:27     +00:22:45   422/546     205/289     COALDALE        
36/43     COOK, ELLA                    1378    0:51:50.180     10:22     16:40     +00:23:25   433/546     212/289     LETHBRIDGE      
37/43     PEDERSEN, CAMBRIA             1403    0:51:54.263     10:22     16:41     +00:23:29   434/546     213/289     COALDALE        
38/43     CHRISTIANSEN, VICTORIA        1050    0:52:45.813     10:33     16:57     +00:24:21   439/546     218/289     LETHBRIDGE      
39/43     DAFOE, ZOEY                   1083    0:54:40.529     10:56     17:34     +00:26:15   462/546     234/289     COALDALE        
40/43     MAGILL, MAGGIE                1604    0:59:08.877     11:49     19:01     +00:30:44   496/546     256/289     COALDALE        
41/43     METZGER, RAYA                 1603    0:59:10.092     11:50     19:01     +00:30:45   497/546     257/289     COALDALE        
42/43     TROCKSTAD, CHLOE              1496    1:01:22.113     12:16     19:43     +00:32:57   519/546     275/289     COALDALE        
43/43     OSLER, GRACIE                 1517    1:02:09.777     12:25     19:59     +00:33:45   524/546     279/289     TABER           
5K07-10M -  57 Competitors                                  
Cat/Pl    Name                          Bib #   Time            Pace/K    Pace/M    Offset      OA/Pl       Gen/Pl      City            
1/57      VELDMAN, LINCOLN              1507    0:22:49.939     04:33     07:20     +00:00:00   25/546      21/257      LETHBRIDGE COUNT
2/57      HILGERSOM, ARI                1161    0:25:51.461     05:10     08:18     +00:03:01   54/546      45/257      LETHBRIDGE      
3/57      BEEKMAN, ARIAN                1545    0:26:26.477     05:17     08:30     +00:03:36   64/546      54/257      COALDALE        
4/57      JENSEN, ZANDER                1383    0:27:02.990     05:24     08:41     +00:04:13   73/546      61/257      COALDALE        
5/57      SCHROYEN, LUCAS               1555    0:27:10.588     05:26     08:44     +00:04:20   75/546      63/257      COALDALE        
6/57      POTTAGE, ANDY                 1264    0:27:37.692     05:31     08:53     +00:04:47   78/546      65/257      LETHBRIDGE      
7/57      HILGERSOM, LENNOX             1162    0:27:51.019     05:34     08:57     +00:05:01   87/546      71/257      LETHBRIDGE      
8/57      CORKUM, NATHANIEL             1075    0:28:17.818     05:39     09:05     +00:05:27   98/546      76/257      COALDALE        
9/57      CAMPS, NASH                   1608    0:28:32.809     05:42     09:10     +00:05:42   107/546     78/257      TABER           
10/57     VERINK, REID                  1577    0:29:05.853     05:49     09:21     +00:06:15   118/546     82/257      COALDALE        
11/57     VELDMAN, HUDSON               1584    0:29:14.518     05:50     09:24     +00:06:24   122/546     83/257      LETHBRIDGE COUNT
12/57     WALL, SETH                    1418    0:29:26.235     05:53     09:27     +00:06:36   129/546     88/257      COALDALE        
13/57     SPENCER, LEANDER              1410    0:29:42.142     05:56     09:33     +00:06:52   136/546     92/257      LETHBRIDGE      
14/57     LOGAN, COOPER                 1206    0:30:05.051     06:01     09:40     +00:07:15   144/546     94/257      COALDALE        
15/57     SLINGERLAND, COLTON           1302    0:30:42.266     06:08     09:52     +00:07:52   153/546     99/257      LETHBRIDGE COUNT
16/57     VAN DER KOOIJ, ROMAN          1326    0:30:44.171     06:08     09:52     +00:07:54   155/546     101/257     NOBLEFORD       
17/57     VAN OENE, CONNOR              1587    0:31:10.175     06:14     10:01     +00:08:20   163/546     104/257     LETHBRIDGE      
18/57     BOUMA, ERIC                   1591    0:31:16.444     06:15     10:03     +00:08:26   167/546     106/257     BARNWELL        
19/57     VELDMAN, COLTON               1583    0:31:19.137     06:15     10:04     +00:08:29   170/546     108/257     LETHBRIDGE COUNT
20/57     CHATTERTON, THOMAS            1045    0:31:29.787     06:17     10:07     +00:08:39   175/546     110/257     LETHBRIDGE      
21/57     ALCALA, MALACHI               1006    0:31:46.323     06:21     10:12     +00:08:56   184/546     112/257     TABER           
22/57     WALKER, NICHOLAS              1355    0:34:14.479     06:50     11:00     +00:11:24   216/546     125/257     LETHBRIDGE      
23/57     SCHROYEN, ASHER               1553    0:35:24.553     07:04     11:23     +00:12:34   237/546     133/257     COALDALE        
24/57     REEDER, WESTON                1492    0:35:32.238     07:06     11:25     +00:12:42   241/546     137/257     COALDALE        
25/57     GOERTZ, SCOTT                 1122    0:35:40.480     07:08     11:28     +00:12:50   247/546     140/257     COALDALE        
26/57     LABUSCHAGNE, CORNELIUS        1580    0:36:00.739     07:12     11:34     +00:13:10   252/546     143/257     COALDALE        
27/57     BECKER, CARTER                1559    0:36:02.804     07:12     11:35     +00:13:12   253/546     144/257     COALDALE        
28/57     ROBINSON, DESMOND             1278    0:36:35.661     07:19     11:46     +00:13:45   260/546     147/257     COALDALE        
29/57     HARRIS, JACOB                 1601    0:37:08.471     07:25     11:56     +00:14:18   268/546     151/257     LETHBRIDGE      
30/57     BULTENA, CARSON               1455    0:37:34.508     07:30     12:04     +00:14:44   272/546     152/257     COALDALE        
31/57     HAUGAN, BROOKS                1380    0:37:46.783     07:33     12:08     +00:14:56   278/546     154/257     COALDALE        
32/57     JANZEN, LEONARD               1173    0:38:20.823     07:40     12:19     +00:15:30   291/546     161/257     LETHBRIDGE      
33/57     TROCKSTAD, ANDREW             1494    0:39:16.319     07:51     12:37     +00:16:26   298/546     165/257     COALDALE        
34/57     BRADLEY, WYATT                1028    0:39:49.232     07:57     12:48     +00:16:59   306/546     168/257     COALDALE        
35/57     MCILROY, EVERETT              1443    0:40:09.950     08:01     12:54     +00:17:20   315/546     173/257     LETHBRIDGE      
36/57     LOGAN, ANDY                   1205    0:41:55.351     08:23     13:28     +00:19:05   340/546     180/257     COALDALE        
37/57     IWANCZUK, NATHAN              1473    0:44:04.536     08:48     14:10     +00:21:14   352/546     186/257     RURAL           
38/57     VAN DER MOLEN, AVERY          1502    0:44:38.835     08:55     14:21     +00:21:48   360/546     190/257     COALDALE        
39/57     WEBSTER, CARTER               1387    0:45:26.072     09:05     14:36     +00:22:36   363/546     192/257     COALDALE        
40/57     KOOT, HENK                    1427    0:47:07.394     09:25     15:09     +00:24:17   378/546     199/257     COALDALE        
41/57     HAWKINS, ADLER                1142    0:49:25.420     09:53     15:53     +00:26:35   399/546     208/257     COALDALE        
42/57     MAGILL, REGGIE                1605    0:49:31.027     09:54     15:55     +00:26:41   404/546     212/257     COALDALE        
43/57     ZANONI, MIGUEL                1533    0:49:58.923     09:59     16:04     +00:27:08   411/546     214/257     LETHBRIDGE      
44/57     COOMBS, NIXON                 1063    0:50:57.395     10:11     16:23     +00:28:07   415/546     215/257     LETHBRIDGE      
45/57     SCHWARTZ, BRAXTON             1297    0:50:59.770     10:11     16:23     +00:28:09   417/546     216/257     COALDALE        
46/57     VAS, PARKER                   1451    0:51:10.383     10:14     16:27     +00:28:20   423/546     218/257     COALDALE        
47/57     WALL, RHETT                   1417    0:51:30.803     10:18     16:33     +00:28:40   428/546     220/257     COALDALE        
48/57     JANZEN, GIDEON                1171    0:55:13.704     11:02     17:45     +00:32:23   467/546     229/257     LETHBRIDGE      
49/57     MCTIGHE, ASHER                1224    0:56:23.264     11:16     18:07     +00:33:33   480/546     234/257     COALHURST       
50/57     CHANT, EZRA                   1459    0:57:54.757     11:34     18:37     +00:35:04   484/546     236/257     COALDALE        
51/57     FOSTER, OWEN                  1437    0:58:38.786     11:43     18:51     +00:35:48   489/546     237/257     COALDALE        
52/57     FOSTER, PATRICK               1438    0:58:39.585     11:43     18:51     +00:35:49   491/546     238/257     COALDALE        
53/57     GUERRERO, CARLOS              1612    0:58:48.594     11:45     18:54     +00:35:58   492/546     239/257     PICTURE BUTTE   
54/57     BARRIOS, MATEO                1526    0:59:02.161     11:48     18:58     +00:36:12   495/546     240/257     COALDALE        
55/57     OSLER, KOLE                   1518    1:03:15.680     12:39     20:20     +00:40:25   532/546     248/257     TABER           
56/57     STAEHR, LINCOLN               1309    1:04:00.105     12:48     20:34     +00:41:10   536/546     249/257     LETHBRIDGE      
57/57     HELLWIG, TREYTAN              1154    1:08:20.016     13:40     21:58     +00:45:30   544/546     256/257     LETHBRIDGE COUNT
5K11-14F -  32 Competitors                                  
Cat/Pl    Name                          Bib #   Time            Pace/K    Pace/M    Offset      OA/Pl       Gen/Pl      City            
1/32      CHATTERTON, ANNA              1043    0:20:19.509     04:03     06:32     +00:00:00   5/546       1/289       LETHBRIDGE      
2/32      VERINK, APRIL                 1578    0:25:08.364     05:01     08:05     +00:04:48   47/546      8/289       COALDALE        
3/32      HARTHOORN, CHELSEA            1138    0:25:30.268     05:06     08:12     +00:05:10   53/546      9/289       COALDALE        
4/32      VAN REEUWYK, CALLIE           1596    0:27:42.781     05:32     08:54     +00:07:23   82/546      15/289      TABER           
5/32      CHRISTIANSEN, SUZETTE         1049    0:28:00.630     05:36     09:00     +00:07:41   92/546      20/289      LETHBRIDGE      
6/32      VELDMAN, KINLEY               1506    0:28:09.864     05:37     09:03     +00:07:50   94/546      21/289      LETHBRIDGE COUNT
7/32      CORKUM, ELISABETH             1070    0:28:12.998     05:38     09:04     +00:07:53   95/546      22/289      COALDALE        
8/32      SPENCER, LAUREN               1409    0:28:20.248     05:40     09:06     +00:08:00   99/546      23/289      LETHBRIDGE      
9/32      SPENCER, TEGAN                1412    0:28:20.279     05:40     09:06     +00:08:00   100/546     24/289      LETHBRIDGE      
10/32     YPMA, NAOMI                   1522    0:28:43.231     05:44     09:14     +00:08:23   110/546     32/289      PURPLE SPRINGS  
11/32     CONRAD, GRACIE                1058    0:29:09.400     05:49     09:22     +00:08:49   119/546     37/289      COALDALE        
12/32     YPMA, FIONA                   1600    0:29:44.996     05:56     09:33     +00:09:25   138/546     45/289      TABER           
13/32     HUNSPERGER, MACIE             1548    0:31:22.189     06:16     10:05     +00:11:02   171/546     63/289      MAGRATH         
14/32     OGRINS, JADA                  1247    0:31:36.891     06:19     10:09     +00:11:17   178/546     67/289      LETHBRIDGE      
15/32     WALDORF, ASPYN                1351    0:31:37.086     06:19     10:09     +00:11:17   179/546     68/289      LETHBRIDGE      
16/32     WESSELS, LEMÈ                 1376    0:32:11.931     06:26     10:21     +00:11:52   187/546     73/289      PICTURE BUTTE   
17/32     FITZHENRY, HANNA              1104    0:32:41.577     06:32     10:30     +00:12:22   196/546     79/289      LETHBRIDGE      
18/32     ROBINSON, CADENCE             1277    0:35:36.069     07:07     11:26     +00:15:16   244/546     107/289     COALDALE        
19/32     TEIXEIRA, AVA                 1595    0:36:33.144     07:18     11:45     +00:16:13   259/546     113/289     LETHBRIDGE      
20/32     BAREMAN, ALINA                1540    0:37:34.968     07:30     12:05     +00:17:15   273/546     121/289     TABER           
21/32     SQUAREK, BROOKLYN             1538    0:38:03.285     07:36     12:14     +00:17:43   283/546     127/289     RAYMOND         
22/32     DAFOE, BELLA                  1082    0:38:06.874     07:37     12:15     +00:17:47   286/546     129/289     COALDALE        
23/32     MCEWAN, BRIANNA               1219    0:38:43.313     07:44     12:27     +00:18:23   296/546     132/289     COALDALE        
24/32     CORKUM, ESTHER                1071    0:46:38.588     09:19     14:59     +00:26:19   375/546     179/289     COALDALE        
25/32     COOK, ISLA                    1379    0:51:36.249     10:19     16:35     +00:31:16   430/546     210/289     LETHBRIDGE      
26/32     FRAME, BRIELLE                1594    0:54:40.078     10:56     17:34     +00:34:20   461/546     233/289     COALDALE        
27/32     COOK, MADISON                 1423    0:55:12.647     11:02     17:45     +00:34:53   465/546     237/289     COALDALE        
28/32     DAY CHIEF, NORA               1085    0:57:55.936     11:35     18:37     +00:37:36   485/546     249/289     KAINAI          
29/32     PYRET, JESSA                  1266    1:00:49.940     12:09     19:33     +00:40:30   514/546     270/289     LETHBRIDGE      
30/32     BERG, CHLOE                   1453    1:00:50.262     12:10     19:33     +00:40:30   515/546     271/289     COALDALE        
31/32     NEUFELD, HANNAH               1238    1:00:50.597     12:10     19:33     +00:40:31   516/546     272/289     COALDALE        
32/32     BARRE, LEXI                   1592    1:01:36.226     12:19     19:48     +00:41:16   522/546     278/289     COALDALE        
5K11-14M -  53 Competitors                                  
Cat/Pl    Name                          Bib #   Time            Pace/K    Pace/M    Offset      OA/Pl       Gen/Pl      City            
1/53      SENNEKER, DAWSON              1300    0:20:47.766     04:09     06:41     +00:00:00   10/546      8/257       COALDALE        
2/53      HUNSPERGER, WADE              1165    0:21:05.124     04:13     06:46     +00:00:17   12/546      10/257      MAGRATH         
3/53      HARTHOORN, BRAD               1137    0:21:48.929     04:21     07:00     +00:01:01   16/546      14/257      COALDALE        
4/53      YPMA, JOSHUA                  1521    0:21:49.239     04:21     07:00     +00:01:01   17/546      15/257      PURPLE SPRINGS  
5/53      EVANS, RAIFE                  1609    0:21:50.645     04:22     07:01     +00:01:02   18/546      16/257      LETHBRIDGE COUNT
6/53      VANDER HERIDE, JESSE          1606    0:21:59.012     04:23     07:04     +00:01:11   19/546      17/257      COLADALE        
7/53      ABREY-MCKEOWN, FINN           1003    0:22:02.948     04:24     07:05     +00:01:15   20/546      18/257      COALDALE        
8/53      CRAVEN, MAX                   1424    0:23:09.032     04:37     07:26     +00:02:21   26/546      22/257      COALDALE        
9/53      SPENCER, GERALD               1407    0:23:41.471     04:44     07:37     +00:02:53   29/546      25/257      LETHBRIDGE      
10/53     HOUWELING, TRISTEN            1574    0:23:43.952     04:44     07:37     +00:02:56   30/546      26/257      COALDALE        
11/53     HARTHOORN, JASON              1139    0:24:02.307     04:48     07:43     +00:03:14   34/546      30/257      COALDALE        
12/53     SLINGERLAND, RILEY            1304    0:24:15.851     04:51     07:48     +00:03:28   36/546      32/257      LETHBRIDGE      
13/53     HOUWELING, LEVI               1571    0:25:26.455     05:05     08:10     +00:04:38   52/546      44/257      COALDALE        
14/53     WESSELS, LIAM                 1377    0:25:56.674     05:11     08:20     +00:05:08   56/546      46/257      PICTURE BUTTE   
15/53     PETERS, TRAVIS                1486    0:25:58.976     05:11     08:21     +00:05:11   58/546      48/257      TABER           
16/53     BIJLSMA, ROWAN                1534    0:26:03.357     05:12     08:22     +00:05:15   60/546      50/257      PURPLE SPRINGS  
17/53     VAN REEUWYK, NIXON            1599    0:27:00.619     05:24     08:41     +00:06:12   71/546      60/257      TABER           
18/53     CORKUM, JAMES                 1072    0:28:15.171     05:39     09:05     +00:07:27   96/546      74/257      COALDALE        
19/53     BULTENA, LUCAS                1456    0:28:22.207     05:40     09:07     +00:07:34   102/546     77/257      COALDALE        
20/53     CREEK, LOGAN                  1076    0:28:45.085     05:45     09:14     +00:07:57   111/546     79/257      COALDALE        
21/53     BAREMAN, JONAH                1542    0:28:47.324     05:45     09:15     +00:07:59   112/546     80/257      TABER           
22/53     VAN DER MOLEN, ANDREW         1501    0:29:17.763     05:51     09:25     +00:08:29   127/546     87/257      COALDALE        
23/53     KEAN, KAELEM                  1397    0:29:30.217     05:54     09:29     +00:08:42   131/546     89/257      COALDALE        
24/53     MAROIS, CALEB                 1442    0:29:42.246     05:56     09:33     +00:08:54   137/546     93/257      COALDALE        
25/53     VOORHORST, RYAN               1349    0:30:29.293     06:05     09:48     +00:09:41   147/546     95/257      LETHBRIDGE COUNT
26/53     IWANCZUK, DANIEL              1471    0:30:37.669     06:07     09:50     +00:09:49   151/546     97/257      COALHURST       
27/53     MAROIS, BRODY                 1441    0:31:18.968     06:15     10:04     +00:10:31   169/546     107/257     COALDALE        
28/53     SQUAREK, JACE                 1539    0:31:22.399     06:16     10:05     +00:10:34   172/546     109/257     RAYMOND         
29/53     VOORHORST, MARK               1218    0:32:32.440     06:30     10:27     +00:11:44   193/546     116/257     LETHBRIDGE COUNT
30/53     NEIL, DONOVAN                 1236    0:33:09.414     06:37     10:39     +00:12:21   200/546     119/257     LETHBRIDGE      
31/53     CLARKE, CHARLIE               1364    0:35:24.518     07:04     11:23     +00:14:36   236/546     132/257     COALDALE        
32/53     ODENBACH, LEVI                1246    0:35:25.574     07:05     11:23     +00:14:37   238/546     134/257     COALDALE        
33/53     TROCKSTAD, TREYSON            1498    0:35:31.328     07:06     11:25     +00:14:43   240/546     136/257     COALDALE        
34/53     CRIDLAND, MACKIE              1366    0:35:59.023     07:11     11:34     +00:15:11   251/546     142/257     LETHBRIDGE      
35/53     NEUFELDT, CAYDEN              1446    0:36:51.391     07:22     11:51     +00:16:03   264/546     149/257     COALDALE        
36/53     ROBINSON, PAUL                1283    0:39:47.712     07:57     12:47     +00:18:59   305/546     167/257     COALDALE        
37/53     TOMLINSON, AEDIN              1493    0:39:52.045     07:58     12:49     +00:19:04   307/546     169/257     COALDALE        
38/53     PENNER, EVAN                  1481    0:39:56.656     07:59     12:50     +00:19:08   309/546     170/257     COALDALE        
39/53     ABREY-MCKEOWN, SEAN           1005    0:40:43.971     08:08     13:05     +00:19:56   323/546     176/257     COALDALE        
40/53     KUSTERMANS, KAIDEN            1187    0:41:52.646     08:22     13:27     +00:21:04   339/546     179/257     COALDALE        
41/53     VAN DER MOLEN, OWEN           1504    0:44:37.692     08:55     14:20     +00:23:49   359/546     189/257     COALDALE        
42/53     LENGERT, PARKER               1197    0:46:49.639     09:21     15:03     +00:26:01   376/546     197/257     COALDALE        
43/53     LENGERT, LIAM                 1196    0:46:50.846     09:22     15:03     +00:26:03   377/546     198/257     COALDALE        
44/53     SPEAR CHIEF, DRAYTIN          1269    0:48:15.575     09:39     15:31     +00:27:27   392/546     204/257     KAINAI          
45/53     WOLF CHILD, EVERETT           1360    0:48:15.743     09:39     15:31     +00:27:27   393/546     205/257     KAINAI          
46/53     METZGER, NATE                 1228    0:49:27.368     09:53     15:54     +00:28:39   401/546     210/257     COALDALE        
47/53     NELSON, ETHAN                 1444    0:49:30.953     09:54     15:55     +00:28:43   403/546     211/257     COALDALE        
48/53     COOK, NIXON                   1530    0:51:16.039     10:15     16:29     +00:30:28   426/546     219/257     COALDALE        
49/53     CHRISTIANSEN, EZRA            1047    0:52:45.884     10:33     16:57     +00:31:58   440/546     222/257     LETHBRIDGE      
50/53     FLAWS, KOBY                   1106    0:54:35.542     10:55     17:33     +00:33:47   459/546     227/257     COALDALE        
51/53     CHANT, SIMON                  1460    0:57:51.402     11:34     18:36     +00:37:03   483/546     235/257     COALDALE        
52/53     BARRIOS, DANIEL               1525    1:02:17.848     12:27     20:01     +00:41:30   525/546     246/257     COALDALE        
53/53     COOMBS, ZANDER                1064    1:05:29.134     13:05     21:03     +00:44:41   537/546     250/257     LETHBRIDGE      
5K15-19F -  16 Competitors                                  
Cat/Pl    Name                          Bib #   Time            Pace/K    Pace/M    Offset      OA/Pl       Gen/Pl      City            
1/16      LEPKO, JAYCIE                 1199    0:20:25.156     04:05     06:33     +00:00:00   7/546       2/289       COALDALE        
2/16      PIZARRO, LAURA                1375    0:22:14.126     04:26     07:08     +00:01:48   22/546      3/289       LETHBRIDGE      
3/16      LEE, ANNIE-JO                 1373    0:27:46.591     05:33     08:55     +00:07:21   83/546      16/289      TABER           
4/16      DE BOER, JAYDEN               1087    0:27:54.667     05:34     08:58     +00:07:29   90/546      18/289      TABER           
5/16      JUBBER, AUBREE                1369    0:28:55.548     05:47     09:18     +00:08:30   114/546     34/289      LETHBRIDGE      
6/16      PETERS, HAYLIE                1484    0:29:56.636     05:59     09:37     +00:09:31   141/546     48/289      TABER           
7/16      FLAHERTY, KATIE               1105    0:32:47.515     06:33     10:32     +00:12:22   197/546     80/289      TABER           
8/16      HAMER, BRONWYN                1130    0:34:20.328     06:52     11:02     +00:13:55   218/546     93/289      COALDALE        
9/16      REURINK, NIESJE               1272    0:34:29.577     06:53     11:05     +00:14:04   222/546     96/289      COALDALE        
10/16     MUKENDI, TRINITY              1234    0:41:19.788     08:15     13:17     +00:20:54   326/546     149/289     TABER           
11/16     LAYLA, JACKIE                 1476    0:41:31.885     08:18     13:21     +00:21:06   331/546     153/289     LETHBRIDGE      
12/16     DYCK, AGATHA                  1095    0:43:12.701     08:38     13:53     +00:22:47   346/546     162/289     TABER           
13/16     LE GLEUHER, JULIE             1192    0:53:19.434     10:39     17:08     +00:32:54   447/546     224/289     COALDALE        
14/16     MCTIGHE, DANICA               1225    0:56:29.523     11:17     18:09     +00:36:04   482/546     248/289     COALHURST       
15/16     BORGES DEPAULA, LUCIARA       1514    1:03:04.751     12:36     20:16     +00:42:39   528/546     282/289     TABER           
16/16     LASCHEWITZ, GABRIELE          1515    1:03:14.860     12:38     20:20     +00:42:49   531/546     284/289     TABER           
5K15-19M -  9 Competitors                                   
Cat/Pl    Name                          Bib #   Time            Pace/K    Pace/M    Offset      OA/Pl       Gen/Pl      City            
1/9       LEFFERS, ANDREW               1193    0:16:34.891     03:18     05:19     +00:00:00   2/546       2/257       SPRUCE GROVE    
2/9       BEAR HAT, KESSLER             1602    0:21:05.893     04:13     06:47     +00:04:31   13/546      11/257      LETHBRIDGE      
3/9       NEIL, KALEB                   1237    0:23:30.584     04:42     07:33     +00:06:55   27/546      23/257      LETHBRIDGE      
4/9       VAN REEUWYK, KARSIN           1597    0:23:40.672     04:44     07:36     +00:07:05   28/546      24/257      TABER           
5/9       IWAASA, ANDREW                1167    0:23:47.186     04:45     07:38     +00:07:12   32/546      28/257      LETHBRIDGE      
6/9       ORSTEN, RYKER                 1449    0:24:27.942     04:53     07:52     +00:07:53   40/546      33/257      COALDALE        
7/9       WOODS-ROBERTS, ADEN           1363    0:37:56.591     07:35     12:12     +00:21:21   281/546     156/257     COALDALE        
8/9       PENNER, DANIEL                1480    0:38:05.675     07:37     12:14     +00:21:30   285/546     157/257     COALDALE        
9/9       BANKS, SAM                    1014    1:01:37.150     12:19     19:48     +00:45:02   523/546     245/257     LETHBRIDGE      
5K20-29F -  37 Competitors                                  
Cat/Pl    Name                          Bib #   Time            Pace/K    Pace/M    Offset      OA/Pl       Gen/Pl      City            
1/37      KLOOT, SARA                   1184    0:22:31.903     04:30     07:14     +00:00:00   23/546      4/289       COALDALE        
2/37      BEREZAY, MONTANA              1021    0:24:15.989     04:51     07:48     +00:01:44   37/546      5/289       MAGRATH         
3/37      BOUCHARD, ROSIE               1026    0:24:23.015     04:52     07:50     +00:01:51   38/546      6/289       LETHBRIDGE      
4/37      LAPIERRE, TAYLOR              1400    0:25:55.533     05:11     08:20     +00:03:23   55/546      10/289      AIRDRIE         
5/37      KAMPERT, EVELYN               1178    0:26:59.054     05:23     08:40     +00:04:27   70/546      11/289      COALDALE        
6/37      BARNES, KELSI                 1015    0:27:29.123     05:29     08:50     +00:04:57   77/546      13/289      LETHBRIDGE      
7/37      VIENNEAU, KATHERINE           1347    0:27:55.974     05:35     08:58     +00:05:24   91/546      19/289      COALDALE        
8/37      KAMPERT, ANNETTE              1529    0:28:37.214     05:43     09:12     +00:06:05   108/546     30/289      COALDALE        
9/37      NICHOLS, JORDYN               1239    0:28:58.094     05:47     09:18     +00:06:26   117/546     36/289      TABER           
10/37     ERROBIDARTE DE MATOS, ISABELLE1101    0:29:45.115     05:57     09:33     +00:07:13   139/546     46/289      LETHBRIDGE      
11/37     GUENTHER, AGANETHA            1426    0:29:54.442     05:58     09:36     +00:07:22   140/546     47/289      LETHBRIDGE      
12/37     LIVINGSTONE, TAMARIN          1201    0:30:17.745     06:03     09:44     +00:07:45   146/546     52/289      LETHBRIDGE      
13/37     KLOK, JENNA                   1183    0:30:51.232     06:10     09:55     +00:08:19   157/546     56/289      LETHBRIDGE      
14/37     JOHNSON, HOPE                 1177    0:31:14.814     06:14     10:02     +00:08:42   164/546     60/289      LETHBRIDGE      
15/37     DICK, KIERRA                  1091    0:31:14.955     06:14     10:02     +00:08:43   165/546     61/289      COALDALE        
16/37     HARTLEY, EMILY                1467    0:32:28.959     06:29     10:26     +00:09:57   190/546     75/289      LETHBRIDGE      
17/37     PENNER, GRACE                 1482    0:33:24.101     06:40     10:44     +00:10:52   203/546     83/289      COALDALE        
18/37     PHILIP, MADDISON              1404    0:34:04.922     06:48     10:57     +00:11:33   212/546     90/289      TABER           
19/37     BARTOSEK, BRITTNEY            1016    0:34:43.936     06:56     11:10     +00:12:12   224/546     98/289      COALDALE        
20/37     VAN VOORST, JORDAN            1338    0:34:44.597     06:56     11:10     +00:12:12   225/546     99/289      COALDALE        
21/37     BELMONTE, PAULA               1019    0:36:57.371     07:23     11:52     +00:14:25   265/546     116/289     LETHBRIDGE      
22/37     FONTAINE, ABI                 1109    0:37:10.687     07:26     11:57     +00:14:38   269/546     118/289     LETHBRIDGE      
23/37     UGLEM, SEANNA                 1321    0:37:55.280     07:35     12:11     +00:15:23   280/546     125/289     LETHBRIDGE      
24/37     CAPATINA, CATALINA            1038    0:38:11.098     07:38     12:16     +00:15:39   289/546     130/289     COALDALE        
25/37     DORCHAK, JANA                 1092    0:40:15.737     08:03     12:56     +00:17:43   316/546     143/289     COALDALE        
26/37     KEITH, JENNIFER               1180    0:40:17.346     08:03     12:57     +00:17:45   319/546     146/289     LETHBRIDGE      
27/37     PETERS, RACHEL                1485    0:41:37.668     08:19     13:23     +00:19:05   334/546     156/289     TABER           
28/37     GUENTHER, TRUDY               1128    0:43:13.070     08:38     13:53     +00:20:41   347/546     163/289     PINCHER CREEK   
29/37     TAMS BETTS, SAMANTHA          1450    0:43:39.649     08:43     14:02     +00:21:07   350/546     165/289     TABER           
30/37     FOX, MADISON                  1425    0:45:13.155     09:02     14:32     +00:22:41   361/546     171/289     COALDALE        
31/37     GEERAERT, SUSIE               1394    0:49:32.510     09:54     15:55     +00:27:00   405/546     193/289     TABER           
32/37     FONTAINE, PAIGE               1111    0:53:05.678     10:37     17:04     +00:30:33   445/546     222/289     LETHBRIDGE      
33/37     GAEHRING, DARCIE              1114    0:53:25.697     10:41     17:10     +00:30:53   448/546     225/289     COALDALE        
34/37     VANDE BERG, TIANA             1339    0:53:28.661     10:41     17:11     +00:30:56   452/546     228/289     MILK RIVER      
35/37     BECKER, ERIN                  1558    0:54:23.873     10:52     17:29     +00:31:51   457/546     231/289     COALDALE        
36/37     BURKE, SYDNEY                 1037    0:58:17.248     11:39     18:44     +00:35:45   486/546     250/289     LETHBRIDGE      
37/37     SCHIER, ASHELLY               1295    1:02:27.372     12:29     20:04     +00:39:55   527/546     281/289     LETHBRIDGE      
5K20-29M -  20 Competitors                                  
Cat/Pl    Name                          Bib #   Time            Pace/K    Pace/M    Offset      OA/Pl       Gen/Pl      City            
1/20      KIMUTAI RUTTO, GIDEON         1022    0:16:32.279     03:18     05:19     +00:00:00   1/546       1/257       LETHBRIDGE      
2/20      CHORNOBY, TYLER               1046    0:19:56.654     03:59     06:24     +00:03:24   4/546       4/257       LETHBRIDGE      
3/20      MOHAMED, KAYSAN               1230    0:20:21.968     04:04     06:32     +00:03:49   6/546       5/257       PICTURE BUTTE   
4/20      CRESSMAN, ALEX                1078    0:20:40.223     04:08     06:38     +00:04:07   9/546       7/257       LETHBRIDGE      
5/20      SANDERS, TANNER               1289    0:20:53.977     04:10     06:43     +00:04:21   11/546      9/257       LETHBRIDGE      
6/20      KASKO, PARKER                 1179    0:21:18.040     04:15     06:50     +00:04:45   14/546      12/257      COALDALE        
7/20      KYJAC-URASAKI, EVIAN          1188    0:22:14.124     04:26     07:08     +00:05:41   21/546      19/257      LETHBRIDGE      
8/20      MITCHELL, KYLE                1229    0:25:58.254     05:11     08:21     +00:09:25   57/546      47/257      COALDALE        
9/20      MORRIS, RHYS                  1232    0:25:59.476     05:11     08:21     +00:09:27   59/546      49/257      COALDALE        
10/20     GIESBRECHT, KEVIN             1120    0:26:17.666     05:15     08:27     +00:09:45   61/546      51/257      TABER           
11/20     SCHOEN, KEES                  1405    0:26:21.311     05:16     08:28     +00:09:49   62/546      52/257      PICTURE BUTTE   
12/20     BETTS, MARK                   1433    0:27:05.425     05:25     08:42     +00:10:33   74/546      62/257      TABER           
13/20     REEDER, BRANDON               1271    0:28:57.216     05:47     09:18     +00:12:24   116/546     81/257      RAYMOND         
14/20     BAREMAN, GAVIN                1541    0:30:36.361     06:07     09:50     +00:14:04   150/546     96/257      TABER           
15/20     KINNIBURGH, CAL               1181    0:30:40.634     06:08     09:51     +00:14:08   152/546     98/257      TABER           
16/20     ULLY, BRETT                   1322    0:34:44.771     06:56     11:10     +00:18:12   226/546     127/257     LETHBRIDGE      
17/20     AYERHART, LEMMY               1420    0:45:13.620     09:02     14:32     +00:28:41   362/546     191/257     COALDALE        
18/20     DOYLE, COLIN                  1093    0:53:03.301     10:36     17:03     +00:36:31   442/546     223/257     LETHBRIDGE      
19/20     GAEHRING, JARED               1115    0:53:27.448     10:41     17:11     +00:36:55   450/546     224/257     COALDALE        
20/20     GEERAERT, CARTER              1393    0:54:37.695     10:55     17:33     +00:38:05   460/546     228/257     TABER           
5K30-39F -  54 Competitors                                  
Cat/Pl    Name                          Bib #   Time            Pace/K    Pace/M    Offset      OA/Pl       Gen/Pl      City            
1/54      CROWDER, NICOLE               1079    0:24:23.044     04:52     07:50     +00:00:00   39/546      7/289       LETHBRIDGE      
2/54      SCHWARTZ, JEN                 1298    0:27:52.291     05:34     08:57     +00:03:29   89/546      17/289      COALDALE        
3/54      LAMBERT, KARIANNE             1189    0:28:20.616     05:40     09:06     +00:03:57   101/546     25/289      COALDALE        
4/54      CHRISTIANSEN, OSHANA          1048    0:28:23.659     05:40     09:07     +00:04:00   103/546     26/289      LETHBRIDGE      
5/54      WAGENAAR, ASHLEY              1582    0:28:25.233     05:41     09:08     +00:04:02   105/546     28/289      LETHBRIDGE      
6/54      CLARK, MARLEY                 1051    0:28:27.104     05:41     09:08     +00:04:04   106/546     29/289      COALDALE        
7/54      VAN DYK, DANIELLE             1329    0:28:50.238     05:46     09:16     +00:04:27   113/546     33/289      STIRLING        
8/54      VAN HAARST, TWILAH            1332    0:29:20.155     05:52     09:25     +00:04:57   128/546     41/289      TABER           
9/54      HAGGETT, STEPHANIE            1129    0:29:28.062     05:53     09:28     +00:05:05   130/546     42/289      LETHBRIDGE      
10/54     VAN DYK, SERENA               1331    0:29:40.012     05:56     09:32     +00:05:16   135/546     44/289      COALDALE        
11/54     SCHOEN, KRISNA                1406    0:30:06.762     06:01     09:40     +00:05:43   145/546     51/289      PICTURE BUTTE   
12/54     VAN HIERDEN, ELINE            1333    0:30:48.297     06:09     09:54     +00:06:25   156/546     55/289      LETHBRIDGE COUNT
13/54     ALCALA, TONYA                 1007    0:31:40.197     06:20     10:10     +00:07:17   182/546     71/289      TABER           
14/54     SCHNEIDER, LEANDRA            1296    0:31:43.555     06:20     10:12     +00:07:20   183/546     72/289      TABER           
15/54     FROESE, LEANNE                1113    0:34:24.738     06:52     11:03     +00:10:01   220/546     94/289      RAYMOND         
16/54     WAGNER, MARIA                 1350    0:34:32.658     06:54     11:06     +00:10:09   223/546     97/289      LETHBRIDGE      
17/54     SAILER, KAYLEE                1287    0:34:46.974     06:57     11:11     +00:10:23   227/546     100/289     COALDALE        
18/54     OLFERT, CASSANDRA             1249    0:34:50.695     06:58     11:12     +00:10:27   228/546     101/289     LETHBRIDGE      
19/54     VELDMAN, CHANTEL              1505    0:35:08.568     07:01     11:17     +00:10:45   232/546     103/289     LETHBRIDGE COUNT
20/54     RODWELL, KIM                  1286    0:35:11.390     07:02     11:18     +00:10:48   233/546     104/289     TABER           
21/54     CORKUM, ARLENE                1068    0:35:48.666     07:09     11:30     +00:11:25   248/546     108/289     COALDALE        
22/54     VAN REEUWYK, MICHELLE         1598    0:36:14.488     07:14     11:39     +00:11:51   255/546     111/289     TABER           
23/54     COOPER, TRACY                 1593    0:36:57.511     07:23     11:53     +00:12:34   266/546     117/289     LETHBRIDGE      
24/54     THEROUX, DEL                  1315    0:38:03.341     07:36     12:14     +00:13:40   284/546     128/289     COALDALE        
25/54     GOERTZEN, CARRIE              1123    0:38:45.708     07:45     12:27     +00:14:22   297/546     133/289     LETHBRIDGE      
26/54     BULLOCK, CHELSIE              1033    0:39:38.196     07:55     12:44     +00:15:15   302/546     136/289     BARNWELL        
27/54     ORSTEN, AMANDA                1448    0:40:06.883     08:01     12:53     +00:15:43   314/546     142/289     COALDALE        
28/54     HEIDT, JESSI                  1149    0:40:15.815     08:03     12:56     +00:15:52   317/546     144/289     COALDAE         
29/54     DYCK, BECCA                   1096    0:40:16.227     08:03     12:56     +00:15:53   318/546     145/289     COALDALE        
30/54     HARKER, MELISSA               1135    0:40:32.572     08:06     13:02     +00:16:09   322/546     147/289     COALDALE        
31/54     HIEMSTRA, KIRA                1159    0:41:27.064     08:17     13:19     +00:17:04   330/546     152/289     COALDALE        
32/54     HOUWELING, MARIEKE            1573    0:41:38.429     08:19     13:23     +00:17:15   335/546     157/289     COALDALE        
33/54     LOHUES, KRYSTEN               1212    0:42:03.712     08:24     13:31     +00:17:40   341/546     161/289     COALDALE        
34/54     VELASQUEZ, MONICA             1431    0:43:53.285     08:46     14:06     +00:19:30   351/546     166/289     LETHBRIDGE      
35/54     KEAN, ALYSSIANA               1395    0:44:09.119     08:49     14:11     +00:19:46   354/546     167/289     COALDALE        
36/54     VAN DER KOOIJ, STACY          1327    0:44:15.955     08:51     14:14     +00:19:52   356/546     168/289     NOBLEFORD       
37/54     ABREY-MCKEOWN, DARCEE         1002    0:46:19.621     09:15     14:53     +00:21:56   369/546     174/289     COALDALE        
38/54     LOHUES, BASIA                 1210    0:48:49.900     09:45     15:42     +00:24:26   395/546     190/289     COALDALE        
39/54     BARRIOS, AURORA               1611    0:49:01.702     09:48     15:45     +00:24:38   398/546     191/289     PICTURE BUTTE   
40/54     POLUMBARIT, KRISTIN ANNE      1488    0:50:02.773     10:00     16:05     +00:25:39   413/546     199/289     LETHBRIDGE      
41/54     KIELSTRA, JENNA               1399    0:50:17.605     10:03     16:10     +00:25:54   414/546     200/289     COALDALE        
42/54     HOLZLI, DIANA                 1468    0:51:14.874     10:14     16:28     +00:26:51   425/546     207/289     COALDALE        
43/54     MCFADDIN, KARA                1401    0:52:42.538     10:32     16:56     +00:28:19   438/546     217/289     COALDALE        
44/54     HANN, MELISSA                 1132    0:53:25.754     10:41     17:10     +00:29:02   449/546     226/289     TABER           
45/54     ROBINSON, LACEY               1281    0:53:30.931     10:42     17:12     +00:29:07   453/546     229/289     COALDALE        
46/54     CLARK, KARLEEN                1464    0:56:07.060     11:13     18:02     +00:31:44   474/546     243/289     COALDALE        
47/54     SARRASIN, PAIGE               1291    0:56:11.728     11:14     18:04     +00:31:48   476/546     245/289     LETHBRIDGE      
48/54     STAEHR, CARLA                 1307    0:58:37.338     11:43     18:50     +00:34:14   488/546     252/289     LETHBRIDGE      
49/54     JONES, ALLY                   1474    1:01:21.033     12:16     19:43     +00:36:57   518/546     274/289     COALDALE        
50/54     BISSCHOP, HEATHER             1024    1:01:35.883     12:19     19:48     +00:37:12   521/546     277/289     COALDALE        
51/54     MCLARTY, ASHLEY               1222    1:02:27.166     12:29     20:04     +00:38:04   526/546     280/289     LETHBRIDGE      
52/54     MUDRYK, REBECCA               1233    1:03:26.507     12:41     20:23     +00:39:03   533/546     285/289     LETHBRIDGE COUNT
53/54     UNSER, DANIELLE               1500    1:03:42.122     12:44     20:28     +00:39:19   535/546     287/289     COALDALE        
54/54     HELLWIG, ASHLEY               1151    1:08:16.547     13:39     21:57     +00:43:53   543/546     288/289     LETHBRIDGE COUNT
5K30-39M -  40 Competitors                                  
Cat/Pl    Name                          Bib #   Time            Pace/K    Pace/M    Offset      OA/Pl       Gen/Pl      City            
1/40      OLESEN, TRENT                 1248    0:21:24.897     04:16     06:53     +00:00:00   15/546      13/257      LETHBRIDGE      
2/40      MACLEAN, BRENDAN              1215    0:23:47.517     04:45     07:39     +00:02:22   33/546      29/257      LETHBRIDGE      
3/40      MERCER, ANDREW                1226    0:24:14.119     04:50     07:47     +00:02:49   35/546      31/257      LETHBRIDGE      
4/40      BOLTEZAR, MARK                1454    0:24:39.874     04:55     07:55     +00:03:14   41/546      34/257      LETHBRIDGE      
5/40      VAN DYK, MIKE                 1330    0:24:47.504     04:57     07:58     +00:03:22   44/546      37/257      STIRLING        
6/40      BLADES, CHARLES               1025    0:25:08.292     05:01     08:04     +00:03:43   46/546      39/257      LETHBRIDGE      
7/40      GOERTZEN, NATHAN              1124    0:25:11.424     05:02     08:05     +00:03:46   49/546      41/257      LETHBRIDGE      
8/40      GOERTZ, BRADY                 1121    0:26:41.370     05:20     08:34     +00:05:16   66/546      56/257      COALDALE        
9/40      SCHAFTHUIZEN, DEVIN           1294    0:26:48.502     05:21     08:37     +00:05:23   68/546      58/257      COALDALE        
10/40     SCHAFTHUIZEN, BRETT           1293    0:26:49.093     05:21     08:37     +00:05:24   69/546      59/257      COALDALE        
11/40     GOMEZ, ALBERT                 1125    0:27:41.159     05:32     08:54     +00:06:16   81/546      67/257      LETHBRIDGE      
12/40     TROCKSTAD, CHAD               1495    0:27:49.913     05:33     08:56     +00:06:25   86/546      70/257      COALDALE        
13/40     VANDER HEIDE, JAKE            1536    0:28:04.396     05:36     09:01     +00:06:39   93/546      73/257      COALDALE        
14/40     MACMILLAN, FRASER             1216    0:29:16.179     05:51     09:24     +00:07:51   123/546     84/257      COALDALE        
15/40     GEERAERT, MITCHELL            1118    0:29:16.769     05:51     09:24     +00:07:51   124/546     85/257      TABER           
16/40     VEURINK, STEVEN               1346    0:29:32.697     05:54     09:29     +00:08:07   132/546     90/257      COALDALE        
17/40     SLINGERLAND, DARCY            1303    0:30:42.889     06:08     09:52     +00:09:17   154/546     100/257     LETHBRIDGE      
18/40     VAN OENE, BEN                 1589    0:36:19.835     07:15     11:40     +00:14:54   258/546     146/257     COALDALE        
19/40     ROBINSON, RYAN                1285    0:36:37.064     07:19     11:46     +00:15:12   261/546     148/257     COALDALE        
20/40     CAPPER, BRANDON               1039    0:37:48.735     07:33     12:09     +00:16:23   279/546     155/257     COALDALE        
21/40     THEROUX, JP                   1317    0:38:09.188     07:37     12:16     +00:16:44   288/546     159/257     COALDALE        
22/40     CLARK, JARED                  1463    0:38:33.958     07:42     12:24     +00:17:09   294/546     163/257     COALDALE        
23/40     CONNON, CHRISTIAN             1055    0:39:26.612     07:53     12:40     +00:18:01   300/546     166/257     COALDALE        
24/40     HARKER, SCOTT                 1136    0:39:57.614     07:59     12:50     +00:18:32   311/546     171/257     COALDALE        
25/40     MCINTOSH, MARK                1220    0:39:57.867     07:59     12:51     +00:18:32   312/546     172/257     COALDALE        
26/40     VARJASSY, CLAYTON             1344    0:40:21.775     08:04     12:58     +00:18:56   321/546     175/257     COALDALE        
27/40     HIEMSTRA, KYLE                1160    0:41:26.708     08:17     13:19     +00:20:01   329/546     178/257     COALDALE        
28/40     LOHUES, CONNOR                1211    0:42:05.135     08:25     13:31     +00:20:40   344/546     183/257     COALDALE        
29/40     KEAN, CHAD                    1396    0:44:08.863     08:49     14:11     +00:22:43   353/546     187/257     COALDALE        
30/40     WEBSTER, DANNY                1388    0:45:26.773     09:05     14:36     +00:24:01   364/546     193/257     COALDALE        
31/40     BRINK, LOUIS                  1030    0:47:26.874     09:29     15:15     +00:26:01   384/546     201/257     LETHBRIDGE      
32/40     ROBILLARD, JARED              1275    0:47:38.690     09:31     15:19     +00:26:13   385/546     202/257     COALDALE        
33/40     VAN DRIESTEN, NATHAN          1328    0:49:26.770     09:53     15:53     +00:28:01   400/546     209/257     LETHBRIDGE      
34/40     ZANONI, JAMES                 1532    0:49:58.622     09:59     16:04     +00:28:33   410/546     213/257     LETHBRIDGE      
35/40     BOOKER, LUKE                  1512    0:55:49.941     11:09     17:57     +00:34:25   471/546     231/257     COALDALE, AB    
36/40     COOK, SHAWN                   1061    0:56:11.947     11:14     18:04     +00:34:47   477/546     232/257     LETHBRIDGE      
37/40     WILSON, DAVID                 1359    1:06:23.885     13:16     21:20     +00:44:58   538/546     251/257     COALDALE        
38/40     TORGUNRUD, DUSTIN             1318    1:06:26.432     13:17     21:21     +00:45:01   539/546     252/257     COALDALE        
39/40     SOBHANA, SREEJITH             1305    1:06:28.531     13:17     21:22     +00:45:03   540/546     253/257     COALDALE        
40/40     HAWKINS, CRAIG                1144    1:08:52.549     13:46     22:08     +00:47:27   546/546     257/257     COALDALE        
5K40-49F -  48 Competitors                                  
Cat/Pl    Name                          Bib #   Time            Pace/K    Pace/M    Offset      OA/Pl       Gen/Pl      City            
1/48      LAMMERS-POTTAGE, ANDREA       1190    0:27:37.717     05:31     08:53     +00:00:00   79/546      14/289      LETHBRIDGE      
2/48      JUBBER, HEATHER               1370    0:28:55.639     05:47     09:18     +00:01:17   115/546     35/289      LETHBRIDGE      
3/48      VAN RIJN, LINDSAY             1335    0:29:11.628     05:50     09:23     +00:01:33   121/546     39/289      LETHBRIDGE      
4/48      VEDRES, FAYLA                 1345    0:29:17.491     05:51     09:25     +00:01:39   125/546     40/289      LETHBRIDGE      
5/48      COQUET, LEANNE                1066    0:29:59.486     05:59     09:38     +00:02:21   143/546     50/289      COALDALE        
6/48      LOGAN, HELEN                  1207    0:30:35.398     06:07     09:50     +00:02:57   149/546     54/289      COALDALE        
7/48      IWAASA, DAWN                  1168    0:30:51.898     06:10     09:55     +00:03:14   158/546     57/289      LETHBRIDGE      
8/48      VERINK, TINA                  1576    0:31:17.170     06:15     10:03     +00:03:39   168/546     62/289      COALDALE        
9/48      LUKINUK, ELIZABETH            1440    0:31:38.499     06:19     10:10     +00:04:00   180/546     69/289      LETHBRIDGE      
10/48     CONRAD, TANYA                 1059    0:31:39.708     06:19     10:10     +00:04:01   181/546     70/289      COALDALE        
11/48     RITCHIE, FALLON               1563    0:32:29.319     06:29     10:26     +00:04:51   191/546     76/289      COALDALE        
12/48     HUNSPERGER, KALINDA           1546    0:32:53.825     06:34     10:34     +00:05:16   199/546     81/289      MAGRATH         
13/48     YPMA, JENNETTE                1520    0:33:10.285     06:38     10:39     +00:05:32   201/546     82/289      PURPLE SPRINGS  
14/48     PAUL, KIMMIE                  1251    0:33:33.192     06:42     10:47     +00:05:55   204/546     84/289      TABER           
15/48     BAREMAN, NATALIE              1543    0:33:47.214     06:45     10:51     +00:06:09   207/546     87/289      TABER           
16/48     HEATHER, AMY                  1147    0:34:04.454     06:48     10:57     +00:06:26   210/546     88/289      COALDALE        
17/48     PHILIP, JENNY                 1260    0:34:04.650     06:48     10:57     +00:06:26   211/546     89/289      CALGARY         
18/48     WALKER, ASHLEY                1352    0:34:16.563     06:51     11:01     +00:06:38   217/546     92/289      LETHBRIDGE      
19/48     DUTCH, LOAN                   1434    0:35:55.069     07:11     11:32     +00:08:17   250/546     109/289     LETHBRIDGE      
20/48     VAN RIJN, MCKINLEY            1336    0:36:17.106     07:15     11:40     +00:08:39   257/546     112/289     CALGARY         
21/48     CAMPS, CAYLEY                 1607    0:37:21.553     07:28     12:00     +00:09:43   270/546     119/289     TABER           
22/48     PAJARITO, GLORIA              1250    0:39:43.406     07:56     12:46     +00:12:05   304/546     138/289     LETHBRIDGE      
23/48     DEACON-ROGERS, LESLEE         1088    0:39:53.189     07:58     12:49     +00:12:15   308/546     139/289     LETHBRIDGE      
24/48     TAMS, CATHERINE               1313    0:41:36.262     08:19     13:22     +00:13:58   332/546     154/289     TABER           
25/48     IWANCZUK, LEAH                1472    0:44:35.148     08:55     14:20     +00:16:57   358/546     170/289     COALHURST       
26/48     LENGERT, BRANDI               1194    0:47:09.595     09:25     15:09     +00:19:31   380/546     181/289     COALDALE        
27/48     BENNETT, AMANDA               1020    0:47:50.772     09:34     15:23     +00:20:13   387/546     185/289     PICTURE BUTTE   
28/48     RIES, LISA                    1273    0:48:06.842     09:37     15:28     +00:20:29   389/546     187/289     COALDALE        
29/48     PETERS, WENDY                 1487    0:48:25.993     09:41     15:34     +00:20:48   394/546     189/289     TABER           
30/48     ROBILLARD, CATHY              1274    0:50:00.988     10:00     16:04     +00:22:23   412/546     198/289     COALDALE        
31/48     COOMBS, KARLI                 1062    0:51:02.469     10:12     16:24     +00:23:24   418/546     202/289     LETHBRIDGE      
32/48     KUSTERMANS, CHELLE            1185    0:51:13.594     10:14     16:28     +00:23:35   424/546     206/289     COALDALE        
33/48     VAS, SAMANTHA                 1452    0:51:21.044     10:16     16:30     +00:23:43   427/546     208/289     COALDALE        
34/48     WALL, MELISSA                 1416    0:51:33.487     10:18     16:34     +00:23:55   429/546     209/289     COALDALE        
35/48     FONTAINE, JAIME               1110    0:53:05.617     10:37     17:04     +00:25:27   444/546     221/289     LETHBRIDGE      
36/48     JANZEN, CORRINE               1170    0:55:13.518     11:02     17:45     +00:27:35   466/546     238/289     LETHBRIDGE      
37/48     MCTIGHE, ALISHA               1223    0:56:28.637     11:17     18:09     +00:28:50   481/546     247/289     COALHURST       
38/48     ROBINSON, JENNIFER            1279    0:59:10.791     11:50     19:01     +00:31:33   498/546     258/289     COALDALE        
39/48     OLIVIERI, DANIELLE            1428    0:59:25.353     11:53     19:06     +00:31:47   500/546     259/289     COALDALE        
40/48     METZGER, JAIME                1227    0:59:29.910     11:53     19:07     +00:31:52   501/546     260/289     COALDALE        
41/48     SCHROYEN, CARMEN              1554    0:59:35.738     11:55     19:09     +00:31:58   502/546     261/289     COALDALE        
42/48     TORRES, YESSENIA              1528    0:59:38.607     11:55     19:10     +00:32:00   504/546     263/289     COALDALE        
43/48     REEDER, TERRENA               1491    0:59:46.964     11:57     19:13     +00:32:09   505/546     264/289     COALDALE        
44/48     GREGOR, BRANDY                1466    0:59:47.107     11:57     19:13     +00:32:09   506/546     265/289     LETHBRIDGE      
45/48     TODD, VICKI                   1510    0:59:59.695     11:59     19:17     +00:32:21   508/546     267/289     COALDALE        
46/48     NAHACHEWSKY, DEANA            1527    1:00:11.701     12:02     19:21     +00:32:33   512/546     269/289     COALDALE        
47/48     BANKS, LILLI                  1013    1:01:35.728     12:19     19:48     +00:33:58   520/546     276/289     LETHBRIDGE      
48/48     SKIBA, KRISTIN                1519    1:03:14.324     12:38     20:20     +00:35:36   530/546     283/289     TABER           
5K40-49M -  34 Competitors                                  
Cat/Pl    Name                          Bib #   Time            Pace/K    Pace/M    Offset      OA/Pl       Gen/Pl      City            
1/34      CASPER, ROB                   1421    0:19:16.257     03:51     06:11     +00:00:00   3/546       3/257       COALDALE        
2/34      CHATTERTON, DAVID             1044    0:20:36.083     04:07     06:37     +00:01:19   8/546       6/257       LETHBRIDGE      
3/34      MCKEOWN, KEVIN                1221    0:23:45.301     04:45     07:38     +00:04:29   31/546      27/257      COALDALE        
4/34      PAUL, TYLER                   1252    0:24:46.247     04:57     07:57     +00:05:29   43/546      36/257      TABER           
5/34      VERINK, IVAN                  1579    0:25:08.431     05:01     08:05     +00:05:52   48/546      40/257      COALDALE        
6/34      CORKUM, DANIEL                1069    0:25:18.469     05:03     08:08     +00:06:02   50/546      42/257      COALDALE        
7/34      CASILI, JULIUS                1041    0:26:42.669     05:20     08:35     +00:07:26   67/546      57/257      LETHBRIDGE      
8/34      JENSEN, CHAD                  1382    0:27:15.262     05:27     08:45     +00:07:59   76/546      64/257      COALDALE        
9/34      POTTAGE, DAN                  1265    0:27:37.776     05:31     08:53     +00:08:21   80/546      66/257      LETHBRIDGE      
10/34     BAREMAN, TRAVIS               1544    0:27:47.363     05:33     08:56     +00:08:31   84/546      68/257      TABER           
11/34     MOLINA, PABLO                 1231    0:28:15.358     05:39     09:05     +00:08:59   97/546      75/257      CALGARY         
12/34     WALL, ANDREW                  1415    0:29:35.371     05:55     09:30     +00:10:19   133/546     91/257      COALDALE        
13/34     SPENCER, LOCKE                1411    0:30:58.922     06:11     09:57     +00:11:42   161/546     102/257     LETHBRIDGE      
14/34     HUNSPERGER, MARK              1549    0:31:04.631     06:12     09:59     +00:11:48   162/546     103/257     MAGRATH         
15/34     EAVES, BRYCE                  1097    0:31:46.843     06:21     10:13     +00:12:30   186/546     114/257     LETHBRIDGE      
16/34     GOOD EAGLE, LJ                1126    0:32:18.173     06:27     10:23     +00:13:01   188/546     115/257     KAINAI          
17/34     RITCHIE, MIKE                 1564    0:32:36.307     06:31     10:29     +00:13:20   194/546     117/257     COALDALE        
18/34     WALKER, BEN                   1353    0:32:51.481     06:34     10:33     +00:13:35   198/546     118/257     LETHBRIDGE      
19/34     HOUWELING, JAMES              1569    0:33:47.600     06:45     10:51     +00:14:31   209/546     122/257     COALDALE        
20/34     PHILIP, MIKE                  1261    0:34:05.146     06:49     10:57     +00:14:48   213/546     123/257     CALGARY         
21/34     WALKER, JOSH                  1354    0:34:23.758     06:52     11:03     +00:15:07   219/546     126/257     LETHBRIDGE      
22/34     BEEKMAN, JASON                1017    0:34:59.209     06:59     11:14     +00:15:42   230/546     128/257     COALDALE        
23/34     STAEHR, BRADLEY               1306    0:35:23.841     07:04     11:22     +00:16:07   235/546     131/257     LETHBRIDGE      
24/34     SCHROYEN, TIM                 1556    0:35:29.255     07:05     11:24     +00:16:12   239/546     135/257     COALDALE        
25/34     OBERKIRSCH, CHET              1244    0:35:37.346     07:07     11:27     +00:16:21   246/546     139/257     COALDALE        
26/34     HAUGAN, COLIN                 1381    0:37:45.926     07:33     12:08     +00:18:29   277/546     153/257     COALDALE        
27/34     DIEK, LEON                    1465    0:38:18.651     07:39     12:19     +00:19:02   290/546     160/257     COALDALE        
28/34     DUTCH, SEAN                   1435    0:38:21.272     07:40     12:19     +00:19:05   292/546     162/257     LETHBRIDGE      
29/34     PETERS, DANNY                 1483    0:40:19.709     08:03     12:58     +00:21:03   320/546     174/257     TABER           
30/34     DECICCO, ALFONSO              1089    0:41:06.093     08:13     13:12     +00:21:49   325/546     177/257     COALDALE        
31/34     COOK, JASON                   1422    0:55:14.822     11:02     17:45     +00:35:58   468/546     230/257     COALDALE        
32/34     NEUFELDT, PAUL                1447    0:56:22.174     11:16     18:07     +00:37:05   478/546     233/257     COALDALE        
33/34     ROBINSON, MIKE                1282    0:59:14.117     11:50     19:02     +00:39:57   499/546     241/257     COALDALE        
34/34     CHANT, ALAN                   1458    0:59:59.719     11:59     19:17     +00:40:43   509/546     242/257     COALDALE        
5K50-59F -  15 Competitors                                  
Cat/Pl    Name                          Bib #   Time            Pace/K    Pace/M    Offset      OA/Pl       Gen/Pl      City            
1/15      SPATE, GENA                   1429    0:27:01.858     05:24     08:41     +00:00:00   72/546      12/289      TABER           
2/15      LENZ, EMMA                    1198    0:29:11.558     05:50     09:23     +00:02:09   120/546     38/289      COALHURST       
3/15      KASKO, SHANNON                1385    0:30:55.000     06:11     09:56     +00:03:53   159/546     58/289      COALDALE        
4/15      LEE, SARAH                    1374    0:33:43.680     06:44     10:50     +00:06:41   206/546     86/289      TABER           
5/15      CRIDLAND, ANGELIQUE           1365    0:34:07.491     06:49     10:58     +00:07:05   215/546     91/289      LETHBRIDGE      
6/15      HAUVER, DEBORAH               1141    0:34:24.861     06:52     11:03     +00:07:23   221/546     95/289      COALDALE        
7/15      KLOK, NOREEN                  1475    0:36:49.007     07:21     11:50     +00:09:47   263/546     115/289     TABER           
8/15      GEERAERT, ARLENE              1117    0:37:37.040     07:31     12:05     +00:10:35   275/546     123/289     TABER           
9/15      WOODS, TANYA                  1362    0:38:24.743     07:40     12:21     +00:11:22   293/546     131/289     COALDALE        
10/15     JUELL, SANDRA                 1585    0:46:21.820     09:16     14:54     +00:19:19   370/546     175/289     LETHBRIDGE      
11/15     FERGUSON, BILLIE-JO           1102    0:47:09.605     09:25     15:09     +00:20:07   381/546     182/289     TABER           
12/15     PITSTRA, JACOMINA             1263    0:47:47.464     09:33     15:22     +00:20:45   386/546     184/289     COALDALE        
13/15     BARON, LINDA                  1320    0:47:52.810     09:34     15:23     +00:20:50   388/546     186/289     LETHBRIDGE      
14/15     LOEWEN, THERESA               1203    0:49:35.492     09:55     15:56     +00:22:33   408/546     196/289     TABER           
15/15     STICKEL-BURKE, KRISTI         1310    1:00:04.153     12:00     19:18     +00:33:02   510/546     268/289     LETHBRIDGE      
5K50-59M -  17 Competitors                                  
Cat/Pl    Name                          Bib #   Time            Pace/K    Pace/M    Offset      OA/Pl       Gen/Pl      City            
1/17      LUKINUK, BRENDT               1439    0:22:35.653     04:31     07:15     +00:00:00   24/546      20/257      LETHBRIDGE      
2/17      HAMER, THOMAS                 1131    0:26:21.329     05:16     08:28     +00:03:45   63/546      53/257      COALDALE        
3/17      GALLANT, BRAD                 1116    0:26:27.719     05:17     08:30     +00:03:52   65/546      55/257      LETHBRIDGE      
4/17      KASKO, RYAN                   1384    0:27:49.225     05:33     08:56     +00:05:13   85/546      69/257      COALDALE        
5/17      KLASSEN, LES                  1182    0:27:51.389     05:34     08:57     +00:05:15   88/546      72/257      COALDALE        
6/17      BURKE, DOUG                   1035    0:29:17.667     05:51     09:25     +00:06:42   126/546     86/257      COALDALE        
7/17      WALTER, GREG                  1356    0:31:29.984     06:17     10:07     +00:08:54   176/546     111/257     COALDALE        
8/17      BROADBENT, GREGORY            1031    0:31:46.801     06:21     10:13     +00:09:11   185/546     113/257     LETHBRIDGE      
9/17      ABREY, JACEN                  1001    0:35:52.850     07:10     11:32     +00:13:17   249/546     141/257     COALDALE        
10/17     ALLEN, TERRENCE               1009    0:37:01.640     07:24     11:54     +00:14:25   267/546     150/257     COALDALE        
11/17     KONYNENBELT, DUANE            1372    0:46:04.992     09:12     14:49     +00:23:29   368/546     195/257     LETHBRIDGE      
12/17     LENGERT, DAN                  1195    0:47:11.480     09:26     15:10     +00:24:35   382/546     200/257     COALDALE        
13/17     LAYLA, JAVIDAD                1477    0:51:38.773     10:19     16:36     +00:29:03   432/546     221/257     LETHBRIDGE      
14/17     QUINTON, JUSTIN               1267    0:53:56.756     10:47     17:20     +00:31:21   455/546     225/257     PICTURE BUTTE   
15/17     BURKE, GARY                   1036    1:00:07.390     12:01     19:19     +00:37:31   511/546     243/257     LETHBRIDGE      
16/17     NELSON, SHAWN                 1562    1:00:11.945     12:02     19:21     +00:37:36   513/546     244/257     COALDALE        
17/17     OSLER, ED                     1516    1:03:14.103     12:38     20:19     +00:40:38   529/546     247/257     TABER           
5K60-69F -  16 Competitors                                  
Cat/Pl    Name                          Bib #   Time            Pace/K    Pace/M    Offset      OA/Pl       Gen/Pl      City            
1/16      WAGENAAR, JANE                1581    0:28:38.505     05:43     09:12     +00:00:00   109/546     31/289      LETHBRIDGE      
2/16      HOUWELING, MARG               1610    0:39:21.473     07:52     12:39     +00:10:42   299/546     134/289     COALDALE        
3/16      JENSEN, ANITA                 1175    0:39:38.935     07:55     12:44     +00:11:00   303/546     137/289     BARNWELL        
4/16      LOFSTROM-BELL, DONNA          1204    0:41:47.755     08:21     13:26     +00:13:09   338/546     160/289     COALDALE        
5/16      KOZIER, MARY-ANN              1524    0:52:15.990     10:27     16:48     +00:23:37   437/546     216/289     COALDALE        
6/16      SCHOLZ, CAROLINE              1552    0:52:56.352     10:35     17:01     +00:24:17   441/546     219/289     LETHBRIDGE      
7/16      VANDER HEYDEN - AYUKAWA, CINDY1531    0:53:28.124     10:41     17:11     +00:24:49   451/546     227/289     LETHBRIDGE      
8/16      LAPIERRE, MARTINE             1191    0:54:23.960     10:52     17:29     +00:25:45   458/546     232/289     LETHBRIDGE      
9/16      VANDYK, ELSA                  1340    0:54:48.843     10:57     17:37     +00:26:10   463/546     235/289     LETHBRIDGE      
10/16     ROBINSON, KARI-ANNE           1280    0:55:10.323     11:02     17:44     +00:26:31   464/546     236/289     BLAIRMORE       
11/16     NICHOLSON, ALICE              1240    0:55:32.286     11:06     17:51     +00:26:53   469/546     239/289     LETHBRIDGE      
12/16     FOSTER, JENNA                 1436    0:58:38.893     11:43     18:51     +00:30:00   490/546     253/289     COALDALE        
13/16     HENRY, HEATHER                1156    0:58:59.015     11:47     18:57     +00:30:20   493/546     254/289     COALDALE        
14/16     ATZELSBERGER-HAZELL, IRENE    1011    0:59:00.100     11:48     18:58     +00:30:21   494/546     255/289     COALDALE        
15/16     MEYER, JO                     1551    0:59:36.100     11:55     19:09     +00:30:57   503/546     262/289     COALDALE        
16/16     FELDMAN, KIM                  1367    0:59:53.575     11:58     19:15     +00:31:15   507/546     266/289     COALDALE        
5K60-69M -  9 Competitors                                   
Cat/Pl    Name                          Bib #   Time            Pace/K    Pace/M    Offset      OA/Pl       Gen/Pl      City            
1/9       GROTEN, JOSH                  1368    0:24:43.154     04:56     07:56     +00:00:00   42/546      35/257      DIAMOND CITY    
2/9       HENRY, GLENN                  1155    0:25:21.253     05:04     08:09     +00:00:38   51/546      43/257      COALDALE        
3/9       VELASQUEZ, ELMER              1430    0:34:05.820     06:49     10:57     +00:09:22   214/546     124/257     LETHBRIDGE      
4/9       ROBINSON, ALLEN               1276    0:35:36.387     07:07     11:26     +00:10:53   245/546     138/257     BLAIRMORE       
5/9       HOFSINK, RON                  1523    0:42:52.602     08:34     13:47     +00:18:09   345/546     184/257     COALDALE        
6/9       PICKERING, DALE               1262    0:43:20.171     08:40     13:56     +00:18:37   349/546     185/257     COALDALE        
7/9       LOEWEN, MILES                 1202    0:48:10.333     09:38     15:29     +00:23:27   391/546     203/257     TABER           
8/9       CHAPMAN, BILL                 1042    0:48:53.920     09:46     15:43     +00:24:10   396/546     206/257     COALDALE        
9/9       VAN RIJN, JACK                1334    0:48:54.882     09:46     15:43     +00:24:11   397/546     207/257     COALDALE        
5K70+F -  6 Competitors                                     
Cat/Pl    Name                          Bib #   Time            Pace/K    Pace/M    Offset      OA/Pl       Gen/Pl      City            
1/6       MURPHY, DEBBIE                1235    0:37:38.854     07:31     12:06     +00:00:00   276/546     124/289     LETHBRIDGE      
2/6       FOWLER, CHRISTINE             1112    0:40:53.579     08:10     13:08     +00:03:14   324/546     148/289     COALDALE        
3/6       VAN SPRONSEN, JOHANNA         1413    0:45:55.782     09:11     14:46     +00:08:16   365/546     172/289     COALDALE        
4/6       VAN RIJN, RAYLENE             1337    0:46:22.375     09:16     14:54     +00:08:43   371/546     176/289     COALDALE        
5/6       BURKE, CAROLINE               1034    0:51:57.017     10:23     16:42     +00:14:18   435/546     214/289     COALDALE        
6/6       TAYLOR, ROBERTA               1103    0:51:57.644     10:23     16:42     +00:14:18   436/546     215/289     COALDALE        
5K70+M -  4 Competitors                                     
Cat/Pl    Name                          Bib #   Time            Pace/K    Pace/M    Offset      OA/Pl       Gen/Pl      City            
1/4       ARGYLE, GRAHAM                1010    0:24:56.607     04:59     08:01     +00:00:00   45/546      38/257      LETHBRIDGE      
2/4       SCOTT, JIM                    1557    0:35:06.194     07:01     11:17     +00:10:09   231/546     129/257     COALDALE        
3/4       ARVIDSON, ROBERT              1391    0:35:21.468     07:04     11:22     +00:10:24   234/546     130/257     LETHBRIDGE COUNT
4/4       WOODS, RALPH                  1361    1:07:10.506     13:26     21:35     +00:42:13   541/546     254/257     COALDALE